Map

Track Data

SID SEASON NUMBER BASIN SUBBASIN NAME ISO_TIME NATURE LAT LON WMO_WIND WMO_PRES WMO_AGENCY TRACK_TYPE DIST2LAND LANDFALL IFLAG USA_AGENCY USA_ATCF_ID USA_LAT USA_LON USA_RECORD USA_STATUS USA_WIND USA_PRES USA_SSHS USA_R34_NE USA_R34_SE USA_R34_SW USA_R34_NW USA_R50_NE USA_R50_SE USA_R50_SW USA_R50_NW USA_R64_NE USA_R64_SE USA_R64_SW USA_R64_NW USA_POCI USA_ROCI USA_RMW USA_EYE TOKYO_LAT TOKYO_LON TOKYO_GRADE TOKYO_WIND TOKYO_PRES TOKYO_R50_DIR TOKYO_R50_LONG TOKYO_R50_SHORT TOKYO_R30_DIR TOKYO_R30_LONG TOKYO_R30_SHORT TOKYO_LAND CMA_LAT CMA_LON CMA_CAT CMA_WIND CMA_PRES HKO_LAT HKO_LON HKO_CAT HKO_WIND HKO_PRES NEWDELHI_LAT NEWDELHI_LON NEWDELHI_GRADE NEWDELHI_WIND NEWDELHI_PRES NEWDELHI_CI NEWDELHI_DP NEWDELHI_POCI REUNION_LAT REUNION_LON REUNION_TYPE REUNION_WIND REUNION_PRES REUNION_TNUM REUNION_CI REUNION_RMW REUNION_R34_NE REUNION_R34_SE REUNION_R34_SW REUNION_R34_NW REUNION_R50_NE REUNION_R50_SE REUNION_R50_SW REUNION_R50_NW REUNION_R64_NE REUNION_R64_SE REUNION_R64_SW REUNION_R64_NW BOM_LAT BOM_LON BOM_TYPE BOM_WIND BOM_PRES BOM_TNUM BOM_CI BOM_RMW BOM_R34_NE BOM_R34_SE BOM_R34_SW BOM_R34_NW BOM_R50_NE BOM_R50_SE BOM_R50_SW BOM_R50_NW BOM_R64_NE BOM_R64_SE BOM_R64_SW BOM_R64_NW BOM_ROCI BOM_POCI BOM_EYE BOM_POS_METHOD BOM_PRES_METHOD NADI_LAT NADI_LON NADI_CAT NADI_WIND NADI_PRES WELLINGTON_LAT WELLINGTON_LON WELLINGTON_WIND WELLINGTON_PRES DS824_LAT DS824_LON DS824_STAGE DS824_WIND DS824_PRES TD9636_LAT TD9636_LON TD9636_STAGE TD9636_WIND TD9636_PRES TD9635_LAT TD9635_LON TD9635_WIND TD9635_PRES TD9635_ROCI NEUMANN_LAT NEUMANN_LON NEUMANN_CLASS NEUMANN_WIND NEUMANN_PRES MLC_LAT MLC_LON MLC_CLASS MLC_WIND MLC_PRES USA_GUST BOM_GUST BOM_GUST_PER REUNION_GUST REUNION_GUST_PER USA_SEAHGT USA_SEARAD_NE USA_SEARAD_SE USA_SEARAD_SW USA_SEARAD_NW STORM_SPEED STORM_DIR
1876313N24310 1876 24 NA NA NOT_NAMED 1876-11-07 12:00:00 TS 24.0000 -50.0000 main 1732 1720 _____________O -1 24.0000 -50.0000 HU 65 7 318
1876313N24310 1876 24 NA NA NOT_NAMED 1876-11-07 15:00:00 TS 24.2501 -50.2498 main 1724 1703 _____________P -1 24.2501 -50.2498 HU 65 7 318
1876313N24310 1876 24 NA NA NOT_NAMED 1876-11-07 18:00:00 TS 24.5000 -50.5000 main 1703 1692 _____________O -1 24.5000 -50.5000 HU 65 7 318
1876313N24310 1876 24 NA NA NOT_NAMED 1876-11-07 21:00:00 TS 24.7500 -50.7501 main 1683 1677 _____________P -1 24.7500 -50.7501 HU 65 7 318
1876313N24310 1876 24 NA NA NOT_NAMED 1876-11-08 00:00:00 TS 25.0000 -51.0000 main 1677 1667 _____________O -1 25.0000 -51.0000 HU 65 7 318
1876313N24310 1876 24 NA NA NOT_NAMED 1876-11-08 03:00:00 TS 25.2500 -51.2501 main 1658 1654 _____________P -1 25.2500 -51.2501 HU 65 7 318
1876313N24310 1876 24 NA NA NOT_NAMED 1876-11-08 06:00:00 TS 25.5000 -51.5000 main 1654 1637 _____________O -1 25.5000 -51.5000 HU 65 7 315
1876313N24310 1876 24 NA NA NOT_NAMED 1876-11-08 09:00:00 TS 25.7501 -51.8097 main 1642 1630 _____________P -1 25.7501 -51.8097 HU 65 7 318
1876313N24310 1876 24 NA NA NOT_NAMED 1876-11-08 12:00:00 TS 26.0000 -52.0000 main 1635 1635 _____________O -1 26.0000 -52.0000 HU 65 5 350
1876313N24310 1876 24 NA NA NOT_NAMED 1876-11-08 15:00:00 TS 26.2500 -51.9103 main 1655 1655 _____________P -1 26.2500 -51.9103 HU 65 6 28
1876313N24310 1876 24 NA NA NOT_NAMED 1876-11-08 18:00:00 TS 26.5000 -51.7000 main 1688 1688 _____________O -1 26.5000 -51.7000 HU 65 6 31
1876313N24310 1876 24 NA NA NOT_NAMED 1876-11-08 21:00:00 TS 26.7499 -51.5723 main 1708 1708 _____________P -1 26.7499 -51.5723 HU 65 6 28
1876313N24310 1876 24 NA NA NOT_NAMED 1876-11-09 00:00:00 TS 27.0000 -51.4000 main 1742 1742 _____________O -1 27.0000 -51.4000 HU 65 6 39
1876313N24310 1876 24 NA NA NOT_NAMED 1876-11-09 03:00:00 TS 27.2501 -51.1225 main 1785 1785 _____________P -1 27.2501 -51.1225 HU 65 7 47
1876313N24310 1876 24 NA NA NOT_NAMED 1876-11-09 06:00:00 TS 27.5000 -50.8000 main 1822 1822 _____________O -1 27.5000 -50.8000 HU 65 8 47
1876313N24310 1876 24 NA NA NOT_NAMED 1876-11-09 09:00:00 TS 27.7574 -50.4999 main 1864 1864 _____________P -1 27.7574 -50.4999 HU 65 7 47
1876313N24310 1876 24 NA NA NOT_NAMED 1876-11-09 12:00:00 TS 28.0000 -50.2000 main 1901 1901 _____________O -1 28.0000 -50.2000 HU 65 7 50
1876313N24310 1876 24 NA NA NOT_NAMED 1876-11-09 15:00:00 TS 28.2074 -49.8998 main 1937 1937 _____________P -1 28.2074 -49.8998 HU 65 7 53
1876313N24310 1876 24 NA NA NOT_NAMED 1876-11-09 18:00:00 TS 28.4000 -49.6000 main 1974 1974 _____________O -1 28.4000 -49.6000 HU 65 7 53
1876313N24310 1876 24 NA NA NOT_NAMED 1876-11-09 21:00:00 TS 28.5999 -49.2999 main 2011 2011 _____________P -1 28.5999 -49.2999 HU 62 7 53
1876313N24310 1876 24 NA NA NOT_NAMED 1876-11-10 00:00:00 TS 28.8000 -49.0000 main 2015 1996 _____________O -1 28.8000 -49.0000 TS 60 7 52
1876313N24310 1876 24 NA NA NOT_NAMED 1876-11-10 03:00:00 TS 29.0074 -48.7000 main 1998 1979 _____________P -1 29.0074 -48.7000 TS 60 7 53
1876313N24310 1876 24 NA NA NOT_NAMED 1876-11-10 06:00:00 TS 29.2000 -48.4000 main 1981 1965 _____________O -1 29.2000 -48.4000 TS 60 6 56
1876313N24310 1876 24 NA NA NOT_NAMED 1876-11-10 09:00:00 TS 29.3649 -48.0999 main 1965 1958 _____________P -1 29.3649 -48.0999 TS 57 6 60
1876313N24310 1876 24 NA NA NOT_NAMED 1876-11-10 12:00:00 TS 29.5000 -47.8000 main 1960 1951 _____________O -1 29.5000 -47.8000 TS 55 6 65
1876313N24310 1876 24 NA NA NOT_NAMED 1876-11-10 15:00:00 TS 29.6074 -47.4999 main 1955 1949 _____________P -1 29.6074 -47.4999 TS 52 6 69
1876313N24310 1876 24 NA NA NOT_NAMED 1876-11-10 18:00:00 TS 29.7000 -47.2000 main 1951 1945 _____________O -1 29.7000 -47.2000 TS 50 6 70
1876313N24310 1876 24 NA NA NOT_NAMED 1876-11-10 21:00:00 TS 29.7999 -46.8999 main 1947 1941 _____________P -1 29.7999 -46.8999 TS 50 6 69
1876313N24310 1876 24 NA NA NOT_NAMED 1876-11-11 00:00:00 TS 29.9000 -46.6000 main 1944 1938 _____________O -1 29.9000 -46.6000 TS 50 6 69
1876313N24310 1876 24 NA NA NOT_NAMED 1876-11-11 03:00:00 TS 30.0075 -46.2925 main 1941 1933 _____________P -1 30.0075 -46.2925 TS 47 6 69
1876313N24310 1876 24 NA NA NOT_NAMED 1876-11-11 06:00:00 TS 30.1000 -46.0000 main 1938 1938 _____________O -1 30.1000 -46.0000 TS 45 5 73
1876313N24310 1876 24 NA NA NOT_NAMED 1876-11-11 09:00:00 TS 30.1498 -45.7573 main 1944 1936 _____________P -1 30.1498 -45.7573 TS 45 4 77
1876313N24310 1876 24 NA NA NOT_NAMED 1876-11-11 12:00:00 TS 30.2000 -45.5000 main 1942 1937 _____________O -1 30.2000 -45.5000 TS 45 5 74
1876313N24310 1876 24 NA NA NOT_NAMED 1876-11-11 15:00:00 TS 30.2925 -45.1650 main 1940 1936 _____________P -1 30.2925 -45.1650 TS 45 6 72
1876313N24310 1876 24 NA NA NOT_NAMED 1876-11-11 18:00:00 TS 30.4000 -44.8000 main 1942 1938 _____________O -1 30.4000 -44.8000 TS 45 7 71
1876313N24310 1876 24 NA NA NOT_NAMED 1876-11-11 21:00:00 TS 30.4999 -44.4499 main 1945 1938 _____________P -1 30.4999 -44.4499 TS 45 6 72
1876313N24310 1876 24 NA NA NOT_NAMED 1876-11-12 00:00:00 TS 30.6000 -44.1000 main 1944 1941 _____________O -1 30.6000 -44.1000 TS 45 6 72
1876313N24310 1876 24 NA NA NOT_NAMED 1876-11-12 03:00:00 TS 30.7000 -43.7425 main 1948 1945 _____________P -1 30.7000 -43.7425 TS 42 6 72
1876313N24310 1876 24 NA NA NOT_NAMED 1876-11-12 06:00:00 TS 30.8000 -43.4000 main 1949 1946 _____________O -1 30.8000 -43.4000 TS 40 6 70
1876313N24310 1876 24 NA NA NOT_NAMED 1876-11-12 09:00:00 TS 30.9001 -43.0901 main 1950 1947 _____________P -1 30.9001 -43.0901 TS 37 6 69
1876313N24310 1876 24 NA NA NOT_NAMED 1876-11-12 12:00:00 TS 31.0000 -42.8000 main 1951 _____________O -1 31.0000 -42.8000 TS 35 5 68

About IBTrACS Database

This database is a web-friendly format of International Best Track Archive for Climate Stewardship (IBTrACS), a global best track data archive curated by NOAA dating back to 1842.

Updated: 2021-12-06